createdAt,value
2019-04-01T00:03:02.781Z,8
2019-04-01T00:08:05.135Z,7
2019-04-01T00:13:07.862Z,7
2019-04-01T00:18:10.056Z,7
2019-04-01T00:23:12.660Z,5
2019-04-01T00:28:14.972Z,6
2019-04-01T00:33:17.482Z,7
2019-04-01T00:38:19.893Z,6
2019-04-01T00:43:22.349Z,6
2019-04-01T00:48:24.828Z,7
2019-04-01T00:53:27.264Z,6
2019-04-01T00:58:30.575Z,7
2019-04-01T01:03:32.300Z,5
2019-04-01T01:08:34.657Z,6
2019-04-01T01:13:37.554Z,6
2019-04-01T01:18:39.580Z,6
2019-04-01T01:23:42.053Z,5
2019-04-01T01:28:44.618Z,8
2019-04-01T01:33:46.961Z,6
2019-04-01T01:38:49.437Z,6
2019-04-01T01:43:51.876Z,7
2019-04-01T01:48:54.373Z,6
2019-04-01T01:53:56.798Z,6
2019-04-01T01:58:59.336Z,6
2019-04-01T02:04:01.830Z,6
2019-04-01T02:09:04.159Z,6
2019-04-01T02:14:07.024Z,8
2019-04-01T02:19:09.123Z,7
2019-04-01T02:24:11.569Z,7
2019-04-01T02:29:14.012Z,7
2019-04-01T02:34:16.459Z,7
2019-04-01T02:39:19.030Z,7
2019-04-01T02:44:21.743Z,7
2019-04-01T02:49:23.843Z,8
2019-04-01T02:54:26.270Z,10
2019-04-01T02:59:28.746Z,7
2019-04-01T03:04:31.197Z,8
2019-04-01T03:09:33.770Z,11
2019-04-01T03:14:36.116Z,19
2019-04-01T03:19:38.582Z,17
2019-04-01T03:24:41.039Z,10
2019-04-01T03:29:43.701Z,9
2019-04-01T03:34:45.982Z,11
2019-04-01T03:39:48.378Z,8
2019-04-01T03:44:54.973Z,6
2019-04-01T03:49:53.377Z,7
2019-04-01T03:54:55.827Z,6
2019-04-01T03:59:58.219Z,5
2019-04-01T04:05:00.756Z,5
2019-04-01T04:10:03.130Z,5
2019-04-01T04:15:05.646Z,5
2019-04-01T04:20:08.088Z,4
2019-04-01T04:25:10.647Z,3
2019-04-01T04:30:12.963Z,3
2019-04-01T04:35:15.464Z,4
2019-04-01T04:40:17.907Z,3
2019-04-01T04:45:20.517Z,7
2019-04-01T04:50:22.795Z,5
2019-04-01T04:55:25.245Z,5
2019-04-01T05:00:27.703Z,13
2019-04-01T05:05:30.216Z,6
2019-04-01T05:10:32.622Z,5
2019-04-01T05:15:35.433Z,4
2019-04-01T05:20:37.540Z,6
2019-04-01T05:25:40.030Z,7
2019-04-01T05:30:42.666Z,8
2019-04-01T05:35:44.909Z,8
2019-04-01T05:40:47.494Z,9
2019-04-01T05:45:49.830Z,10
2019-04-01T05:50:52.284Z,11
2019-04-01T05:55:54.732Z,9
2019-04-01T06:00:57.209Z,9
2019-04-01T06:05:59.681Z,11
2019-04-01T06:11:02.121Z,11
2019-04-01T06:16:04.693Z,8
2019-04-01T06:21:07.039Z,5
2019-04-01T06:26:09.534Z,5
2019-04-01T06:31:12.088Z,6
2019-04-01T06:36:14.423Z,5
2019-04-01T06:41:16.893Z,5
2019-04-01T06:46:19.625Z,4
2019-04-01T06:51:21.800Z,4
2019-04-01T06:56:24.302Z,4
2019-04-01T07:01:26.839Z,3
2019-04-01T07:06:29.171Z,3
2019-04-01T07:11:31.642Z,3
2019-04-01T07:16:34.164Z,2
2019-04-01T07:21:36.595Z,3
2019-04-01T07:26:39.112Z,2
2019-04-01T07:31:41.467Z,3
2019-04-01T07:41:46.398Z,4
2019-04-01T07:46:49.216Z,6
2019-04-01T07:51:51.332Z,2
2019-04-01T07:56:53.766Z,2
2019-04-01T08:01:56.210Z,3
2019-04-01T08:06:58.684Z,3
2019-04-01T08:12:01.254Z,2
2019-04-01T08:17:03.885Z,3
2019-04-01T08:22:06.048Z,3
2019-04-01T08:27:08.524Z,3
2019-04-01T08:32:13.690Z,3
2019-04-01T08:37:13.417Z,4
2019-04-01T08:42:15.903Z,5
2019-04-01T08:47:18.335Z,6
2019-04-01T08:52:20.856Z,5
2019-04-01T08:57:23.296Z,6
2019-04-01T09:02:25.732Z,6
2019-04-01T09:07:28.189Z,6
2019-04-01T09:12:30.806Z,6
2019-04-01T09:17:33.097Z,6
2019-04-01T09:22:35.574Z,6
2019-04-01T09:27:38.070Z,7
2019-04-01T09:32:40.479Z,7
2019-04-01T09:37:42.996Z,7
2019-04-01T09:42:45.438Z,7
2019-04-01T09:47:47.837Z,7
2019-04-01T09:52:50.401Z,8
2019-04-01T09:57:52.813Z,9
2019-04-01T10:02:55.226Z,7
2019-04-01T10:07:57.793Z,9
2019-04-01T10:13:00.145Z,8
2019-04-01T10:18:07.664Z,7
2019-04-01T10:23:05.391Z,7
2019-04-01T10:28:07.598Z,8
2019-04-01T10:33:09.997Z,8
2019-04-01T10:38:12.557Z,7
2019-04-01T10:43:14.926Z,9
2019-04-01T10:48:17.415Z,8
2019-04-01T10:53:19.909Z,8
2019-04-01T10:58:22.374Z,8
2019-04-01T11:03:25.113Z,7
2019-04-01T11:08:27.253Z,8
2019-04-01T11:13:29.668Z,8
2019-04-01T11:18:32.141Z,9
2019-04-01T11:23:34.587Z,8
2019-04-01T11:28:37.144Z,9
2019-04-01T11:33:39.839Z,10
2019-04-01T11:38:42.017Z,8
2019-04-01T11:43:44.531Z,10
2019-04-01T11:48:46.890Z,8
2019-04-01T11:53:49.384Z,9
2019-04-01T11:58:51.825Z,10
2019-04-01T12:03:54.264Z,10
2019-04-01T12:08:56.705Z,8
2019-04-01T12:13:59.310Z,9
2019-04-01T12:19:01.651Z,8
2019-04-01T12:24:04.077Z,9
2019-04-01T12:29:06.638Z,9
2019-04-01T12:34:09.316Z,9
2019-04-01T12:44:13.939Z,7
2019-04-01T12:49:16.478Z,8
2019-04-01T12:54:18.850Z,8
2019-04-01T12:59:21.434Z,9
2019-04-01T13:04:24.142Z,9
2019-04-01T13:09:26.279Z,9
2019-04-01T13:14:28.713Z,9
2019-04-01T13:19:31.157Z,8
2019-04-01T13:24:33.599Z,9
2019-04-01T13:29:36.046Z,8
2019-04-01T13:34:39.358Z,8
2019-04-01T13:39:40.971Z,7
2019-04-01T13:44:43.456Z,8
2019-04-01T13:49:45.961Z,8
2019-04-01T13:54:48.365Z,8
2019-04-01T13:59:51.750Z,8
2019-04-01T14:04:53.617Z,8
2019-04-01T14:09:55.745Z,9
2019-04-01T14:20:00.650Z,7
2019-04-01T14:25:03.112Z,7
2019-04-01T14:30:05.776Z,8
2019-04-01T14:35:08.316Z,7
2019-04-01T14:40:10.481Z,7
2019-04-01T14:45:12.977Z,7
2019-04-01T14:50:15.444Z,7
2019-04-01T14:55:17.841Z,6
2019-04-01T15:00:20.389Z,8
2019-04-01T15:05:23.099Z,7
2019-04-01T15:10:25.228Z,7
2019-04-01T15:15:27.695Z,6
2019-04-01T15:20:30.266Z,5
2019-04-01T15:25:32.584Z,5
2019-04-01T15:30:35.094Z,6
2019-04-01T15:35:37.797Z,5
2019-04-01T15:40:40.005Z,5
2019-04-01T15:45:42.445Z,4
2019-04-01T15:50:44.929Z,5
2019-04-01T15:55:47.631Z,5
2019-04-01T16:00:49.831Z,5
2019-04-01T16:05:52.610Z,5
2019-04-01T16:10:54.705Z,6
2019-04-01T16:15:57.207Z,6
2019-04-01T16:20:59.652Z,7
2019-04-01T16:26:02.103Z,5
2019-04-01T16:31:04.655Z,4
2019-04-01T16:36:07.287Z,5
2019-04-01T16:41:09.477Z,4
2019-04-01T16:46:12.284Z,5
2019-04-01T16:51:14.395Z,5
2019-04-01T16:56:16.821Z,5
2019-04-01T17:01:19.293Z,7
2019-04-01T17:06:22.085Z,5
2019-04-01T17:11:24.211Z,5
2019-04-01T17:16:26.709Z,5
2019-04-01T17:21:29.145Z,5
2019-04-01T17:26:31.602Z,4
2019-04-01T17:31:34.023Z,5
2019-04-01T17:36:36.845Z,4
2019-04-01T17:41:38.964Z,5
2019-04-01T17:46:41.406Z,3
2019-04-01T17:51:44.085Z,3
2019-04-01T17:56:47.122Z,3
2019-04-01T18:01:49.079Z,3
2019-04-01T18:06:51.324Z,3
2019-04-01T18:11:54.313Z,3
2019-04-01T18:16:56.138Z,2
2019-04-01T18:22:00.095Z,3
2019-04-01T18:27:01.215Z,2
2019-04-01T18:32:03.652Z,2
2019-04-01T18:37:06.331Z,2
2019-04-01T18:42:08.529Z,2
2019-04-01T18:47:10.889Z,2
2019-04-01T18:52:13.346Z,2
2019-04-01T18:57:15.802Z,2
2019-04-01T19:02:18.250Z,2
2019-04-01T19:07:21.922Z,3
2019-04-01T19:12:23.202Z,2
2019-04-01T19:17:25.654Z,2
2019-04-01T19:22:28.100Z,3
2019-04-01T19:27:30.526Z,3
2019-04-01T19:32:32.999Z,3
2019-04-01T19:37:35.759Z,3
2019-04-01T19:42:39.533Z,3
2019-04-01T19:47:40.386Z,3
2019-04-01T19:52:44.401Z,2
2019-04-01T19:57:46.155Z,4
2019-04-01T20:02:47.808Z,2
2019-04-01T20:07:50.554Z,3
2019-04-01T20:12:52.788Z,4
2019-04-01T20:17:55.200Z,3
2019-04-01T20:22:57.608Z,2
2019-04-01T20:28:00.069Z,3
2019-04-01T20:33:02.532Z,3
2019-04-01T20:38:05.229Z,2
2019-04-01T20:43:07.425Z,3
2019-04-01T20:48:09.949Z,2
2019-04-01T20:53:12.367Z,3
2019-04-01T20:58:14.830Z,3
2019-04-01T21:03:17.224Z,4
2019-04-01T21:08:19.975Z,3
2019-04-01T21:13:22.332Z,3
2019-04-01T21:18:24.589Z,3
2019-04-01T21:23:27.066Z,3
2019-04-01T21:28:29.520Z,3
2019-04-01T21:33:31.967Z,3
2019-04-01T21:38:34.731Z,2
2019-04-01T21:43:37.071Z,2
2019-04-01T21:48:39.757Z,3
2019-04-01T21:53:41.798Z,3
2019-04-01T21:58:44.274Z,2
2019-04-01T22:03:46.728Z,2
2019-04-01T22:08:49.463Z,3
2019-04-01T22:13:51.642Z,3
2019-04-01T22:18:54.113Z,4
2019-04-01T22:28:58.979Z,3
2019-04-01T22:34:01.449Z,2
2019-04-01T22:39:04.323Z,3
2019-04-01T22:44:06.390Z,2
2019-04-01T22:49:08.813Z,4
2019-04-01T22:54:11.282Z,3
2019-04-01T22:59:13.751Z,3
2019-04-01T23:04:16.177Z,3
2019-04-01T23:09:18.981Z,3
2019-04-01T23:14:21.127Z,2
2019-04-01T23:19:23.598Z,3
2019-04-01T23:24:26.027Z,3
2019-04-01T23:29:28.474Z,2
2019-04-01T23:34:31.046Z,3
2019-04-01T23:39:34.264Z,3
2019-04-01T23:44:35.869Z,3
2019-04-01T23:49:40.152Z,3
2019-04-01T23:54:40.780Z,2
2019-04-01T23:59:43.254Z,3
